createdAt,value
2019-03-20T00:00:28.662Z,1048.43
2019-03-20T00:01:28.646Z,1048.46
2019-03-20T00:02:28.631Z,1048.48
2019-03-20T00:03:28.612Z,1048.49
2019-03-20T00:04:28.596Z,1048.52
2019-03-20T00:05:28.579Z,1048.47
2019-03-20T00:06:28.562Z,1048.49
2019-03-20T00:07:28.544Z,1048.48
2019-03-20T00:08:28.529Z,1048.46
2019-03-20T00:09:28.512Z,1048.53
2019-03-20T00:10:28.493Z,1048.53
2019-03-20T00:11:28.477Z,1048.55
2019-03-20T00:12:28.462Z,1048.52
2019-03-20T00:13:28.444Z,1048.48
2019-03-20T00:14:28.437Z,1048.5
2019-03-20T00:15:28.408Z,1048.48
2019-03-20T00:16:28.393Z,1048.49
2019-03-20T00:17:28.387Z,1048.54
2019-03-20T00:18:28.364Z,1048.57
2019-03-20T00:19:28.342Z,1048.57
2019-03-20T00:20:28.325Z,1048.61
2019-03-20T00:21:28.309Z,1048.58
2019-03-20T00:22:28.291Z,1048.57
2019-03-20T00:23:28.274Z,1048.59
2019-03-20T00:24:28.259Z,1048.6
2019-03-20T00:25:28.240Z,1048.59
2019-03-20T00:26:28.227Z,1048.6
2019-03-20T00:27:28.208Z,1048.63
2019-03-20T00:28:28.190Z,1048.6
2019-03-20T00:29:28.172Z,1048.62
2019-03-20T00:30:28.155Z,1048.57
2019-03-20T00:31:28.146Z,1048.57
2019-03-20T00:32:28.120Z,1048.55
2019-03-20T00:33:28.104Z,1048.57
2019-03-20T00:34:28.087Z,1048.61
2019-03-20T00:35:28.072Z,1048.63
2019-03-20T00:36:28.053Z,1048.61
2019-03-20T00:37:28.036Z,1048.56
2019-03-20T00:38:28.019Z,1048.57
2019-03-20T00:39:28.003Z,1048.53
2019-03-20T00:40:27.985Z,1048.57
2019-03-20T00:41:27.968Z,1048.57
2019-03-20T00:42:27.952Z,1048.59
2019-03-20T00:43:27.933Z,1048.56
2019-03-20T00:44:27.917Z,1048.56
2019-03-20T00:45:27.900Z,1048.57
2019-03-20T00:46:27.883Z,1048.59
2019-03-20T00:47:27.870Z,1048.59
2019-03-20T00:48:27.848Z,1048.54
2019-03-20T00:49:27.832Z,1048.62
2019-03-20T00:50:27.814Z,1048.6
2019-03-20T00:51:27.797Z,1048.64
2019-03-20T00:52:27.780Z,1048.61
2019-03-20T00:53:27.763Z,1048.6
2019-03-20T00:54:27.746Z,1048.6
2019-03-20T00:55:27.730Z,1048.63
2019-03-20T00:56:27.719Z,1048.6
2019-03-20T00:57:27.696Z,1048.61
2019-03-20T00:58:27.678Z,1048.62
2019-03-20T00:59:27.661Z,1048.58
2019-03-20T01:00:27.643Z,1048.58
2019-03-20T01:01:27.629Z,1048.6
2019-03-20T01:02:27.610Z,1048.56
2019-03-20T01:03:27.597Z,1048.61
2019-03-20T01:04:27.576Z,1048.6
2019-03-20T01:05:27.561Z,1048.61
2019-03-20T01:06:27.549Z,1048.62
2019-03-20T01:07:27.529Z,1048.59
2019-03-20T01:08:27.510Z,1048.55
2019-03-20T01:09:27.491Z,1048.53
2019-03-20T01:10:27.473Z,1048.54
2019-03-20T01:11:27.460Z,1048.58
2019-03-20T01:12:27.443Z,1048.59
2019-03-20T01:13:27.423Z,1048.59
2019-03-20T01:14:27.406Z,1048.58
2019-03-20T01:15:27.393Z,1048.55
2019-03-20T01:16:27.370Z,1048.57
2019-03-20T01:17:27.388Z,1048.52
2019-03-20T01:18:27.337Z,1048.55
2019-03-20T01:19:27.320Z,1048.54
2019-03-20T01:20:27.301Z,1048.57
2019-03-20T01:21:27.284Z,1048.56
2019-03-20T01:22:27.269Z,1048.58
2019-03-20T01:23:27.251Z,1048.56
2019-03-20T01:24:27.234Z,1048.56
2019-03-20T01:25:27.217Z,1048.57
2019-03-20T01:26:27.201Z,1048.57
2019-03-20T01:27:27.183Z,1048.61
2019-03-20T01:28:27.166Z,1048.62
2019-03-20T01:29:27.149Z,1048.65
2019-03-20T01:30:27.133Z,1048.63
2019-03-20T01:31:27.123Z,1048.61
2019-03-20T01:32:27.099Z,1048.6
2019-03-20T01:33:27.085Z,1048.57
2019-03-20T01:34:27.068Z,1048.61
2019-03-20T01:35:27.051Z,1048.63
2019-03-20T01:36:27.031Z,1048.65
2019-03-20T01:37:27.015Z,1048.64
2019-03-20T01:38:26.997Z,1048.64
2019-03-20T01:39:26.980Z,1048.64
2019-03-20T01:40:26.963Z,1048.63
2019-03-20T01:41:37.335Z,1048.59
2019-03-20T01:42:26.929Z,1048.6
2019-03-20T01:43:26.912Z,1048.6
2019-03-20T01:44:26.895Z,1048.61
2019-03-20T01:45:26.879Z,1048.59
2019-03-20T01:46:26.861Z,1048.65
2019-03-20T01:47:26.844Z,1048.61
2019-03-20T01:48:26.827Z,1048.57
2019-03-20T01:49:26.810Z,1048.59
2019-03-20T01:50:26.793Z,1048.59
2019-03-20T01:51:26.776Z,1048.59
2019-03-20T01:52:26.758Z,1048.64
2019-03-20T01:53:26.742Z,1048.62
2019-03-20T01:54:26.725Z,1048.63
2019-03-20T01:55:26.708Z,1048.64
2019-03-20T01:56:26.690Z,1048.68
2019-03-20T01:57:26.674Z,1048.67
2019-03-20T01:58:26.657Z,1048.66
2019-03-20T01:59:26.643Z,1048.69
2019-03-20T02:00:26.622Z,1048.69
2019-03-20T02:01:26.605Z,1048.72
2019-03-20T02:02:26.588Z,1048.73
2019-03-20T02:03:26.571Z,1048.79
2019-03-20T02:04:26.554Z,1048.78
2019-03-20T02:05:35.019Z,1048.74
2019-03-20T02:06:26.520Z,1048.75
2019-03-20T02:07:26.502Z,1048.74
2019-03-20T02:08:26.487Z,1048.76
2019-03-20T02:09:26.469Z,1048.78
2019-03-20T02:10:26.452Z,1048.79
2019-03-20T02:11:26.434Z,1048.84
2019-03-20T02:12:26.417Z,1048.87
2019-03-20T02:13:26.404Z,1048.87
2019-03-20T02:14:26.381Z,1048.85
2019-03-20T02:15:37.586Z,1048.9
2019-03-20T02:16:26.354Z,1048.89
2019-03-20T02:17:26.340Z,1048.88
2019-03-20T02:18:26.317Z,1048.9
2019-03-20T02:19:26.301Z,1048.93
2019-03-20T02:20:26.284Z,1048.91
2019-03-20T02:21:26.269Z,1048.91
2019-03-20T02:22:26.249Z,1048.87
2019-03-20T02:23:26.235Z,1048.83
2019-03-20T02:24:26.218Z,1048.89
2019-03-20T02:25:26.197Z,1048.87
2019-03-20T02:26:26.180Z,1048.88
2019-03-20T02:27:26.163Z,1048.88
2019-03-20T02:28:26.146Z,1048.91
2019-03-20T02:29:26.129Z,1048.94
2019-03-20T02:30:26.112Z,1048.99
2019-03-20T02:31:26.095Z,1048.99
2019-03-20T02:32:26.079Z,1049.01
2019-03-20T02:33:26.066Z,1049.05
2019-03-20T02:34:26.044Z,1049.05
2019-03-20T02:35:26.027Z,1049.1
2019-03-20T02:36:26.008Z,1049.1
2019-03-20T02:37:25.991Z,1049.13
2019-03-20T02:38:25.975Z,1049.09
2019-03-20T02:39:25.958Z,1049.11
2019-03-20T02:40:25.938Z,1049.08
2019-03-20T02:41:25.921Z,1049.1
2019-03-20T02:42:25.905Z,1049.09
2019-03-20T02:43:25.894Z,1049.12
2019-03-20T02:44:25.889Z,1049.14
2019-03-20T02:45:25.852Z,1049.12
2019-03-20T02:46:25.835Z,1049.07
2019-03-20T02:47:25.818Z,1049.15
2019-03-20T02:48:25.801Z,1049.13
2019-03-20T02:49:25.783Z,1049.15
2019-03-20T02:50:25.766Z,1049.14
2019-03-20T02:51:25.748Z,1049.18
2019-03-20T02:52:25.731Z,1049.15
2019-03-20T02:53:25.713Z,1049.14
2019-03-20T02:54:25.696Z,1049.09
2019-03-20T02:55:25.706Z,1049.1
2019-03-20T02:56:25.665Z,1049.08
2019-03-20T02:57:25.645Z,1049.09
2019-03-20T02:58:25.630Z,1049.02
2019-03-20T02:59:25.610Z,1049.05
2019-03-20T03:00:25.596Z,1049.05
2019-03-20T03:01:25.575Z,1049.07
2019-03-20T03:02:25.558Z,1049.08
2019-03-20T03:03:25.538Z,1049.09
2019-03-20T03:04:25.530Z,1049.12
2019-03-20T03:05:25.510Z,1049.12
2019-03-20T03:06:25.489Z,1049.14
2019-03-20T03:07:25.471Z,1049.15
2019-03-20T03:08:25.453Z,1049.13
2019-03-20T03:09:25.460Z,1049.11
2019-03-20T03:10:25.424Z,1049.08
2019-03-20T03:11:25.400Z,1049.07
2019-03-20T03:12:25.385Z,1049.03
2019-03-20T03:13:25.366Z,1049.03
2019-03-20T03:14:25.348Z,1049.06
2019-03-20T03:15:25.332Z,1049.09
2019-03-20T03:16:25.315Z,1049.17
2019-03-20T03:17:25.296Z,1049.19
2019-03-20T03:18:25.280Z,1049.22
2019-03-20T03:19:25.262Z,1049.24
2019-03-20T03:20:25.242Z,1049.26
2019-03-20T03:21:25.229Z,1049.24
2019-03-20T03:22:25.210Z,1049.26
2019-03-20T03:23:25.191Z,1049.27
2019-03-20T03:24:25.175Z,1049.26
2019-03-20T03:25:25.168Z,1049.23
2019-03-20T03:26:25.141Z,1049.23
2019-03-20T03:27:25.123Z,1049.27
2019-03-20T03:28:25.103Z,1049.31
2019-03-20T03:29:25.094Z,1049.28
2019-03-20T03:30:25.074Z,1049.32
2019-03-20T03:31:25.067Z,1049.31
2019-03-20T03:32:25.041Z,1049.36
2019-03-20T03:33:25.017Z,1049.4
2019-03-20T03:34:24.999Z,1049.39
2019-03-20T03:35:24.987Z,1049.39
2019-03-20T03:36:25.056Z,1049.39
2019-03-20T03:37:24.947Z,1049.42
2019-03-20T03:38:24.929Z,1049.44
2019-03-20T03:39:24.912Z,1049.42
2019-03-20T03:40:24.894Z,1049.45
2019-03-20T03:41:24.881Z,1049.44
2019-03-20T03:42:24.858Z,1049.46
2019-03-20T03:43:24.850Z,1049.45
2019-03-20T03:44:24.824Z,1049.46
2019-03-20T03:45:24.811Z,1049.48
2019-03-20T03:46:24.789Z,1049.53
2019-03-20T03:47:24.770Z,1049.56
2019-03-20T03:48:24.767Z,1049.54
2019-03-20T03:49:24.758Z,1049.57
2019-03-20T03:50:24.718Z,1049.56
2019-03-20T03:51:24.707Z,1049.6
2019-03-20T03:52:24.684Z,1049.66
2019-03-20T03:53:24.671Z,1049.64
2019-03-20T03:54:24.646Z,1049.67
2019-03-20T03:55:24.630Z,1049.62
2019-03-20T03:56:24.614Z,1049.68
2019-03-20T03:57:24.594Z,1049.65
2019-03-20T03:58:24.577Z,1049.68
2019-03-20T03:59:24.560Z,1049.67
2019-03-20T04:00:24.548Z,1049.66
2019-03-20T04:01:24.525Z,1049.68
2019-03-20T04:02:24.502Z,1049.67
2019-03-20T04:03:24.491Z,1049.69
2019-03-20T04:04:24.466Z,1049.68
2019-03-20T04:05:24.453Z,1049.7
2019-03-20T04:06:34.776Z,1049.71
2019-03-20T04:07:24.415Z,1049.73
2019-03-20T04:08:24.412Z,1049.7
2019-03-20T04:09:24.383Z,1049.7
2019-03-20T04:10:24.363Z,1049.71
2019-03-20T04:11:24.347Z,1049.7
2019-03-20T04:12:24.328Z,1049.69
2019-03-20T04:13:24.322Z,1049.7
2019-03-20T04:14:24.290Z,1049.65
2019-03-20T04:15:24.276Z,1049.69
2019-03-20T04:16:24.259Z,1049.71
2019-03-20T04:17:24.243Z,1049.72
2019-03-20T04:18:24.221Z,1049.7
2019-03-20T04:19:24.206Z,1049.68
2019-03-20T04:20:24.185Z,1049.72
2019-03-20T04:21:24.172Z,1049.69
2019-03-20T04:22:24.148Z,1049.68
2019-03-20T04:23:24.133Z,1049.7
2019-03-20T04:24:24.115Z,1049.71
2019-03-20T04:25:24.100Z,1049.7
2019-03-20T04:26:24.085Z,1049.72
2019-03-20T04:27:24.060Z,1049.74
2019-03-20T04:28:24.046Z,1049.76
2019-03-20T04:29:24.029Z,1049.79
2019-03-20T04:30:24.011Z,1049.87
2019-03-20T04:31:23.991Z,1049.83
2019-03-20T04:32:23.976Z,1049.87
2019-03-20T04:33:23.956Z,1049.84
2019-03-20T04:34:23.941Z,1049.87
2019-03-20T04:35:23.921Z,1049.83
2019-03-20T04:36:23.907Z,1049.82
2019-03-20T04:37:23.889Z,1049.83
2019-03-20T04:38:23.867Z,1049.85
2019-03-20T04:39:23.847Z,1049.84
2019-03-20T04:40:23.830Z,1049.83
2019-03-20T04:41:23.817Z,1049.88
2019-03-20T04:42:23.800Z,1049.88
2019-03-20T04:43:23.785Z,1049.88
2019-03-20T04:44:23.759Z,1049.89
2019-03-20T04:45:23.742Z,1049.89
2019-03-20T04:46:23.728Z,1049.85
2019-03-20T04:47:23.707Z,1049.89
2019-03-20T04:48:23.692Z,1049.88
2019-03-20T04:49:23.671Z,1049.86
2019-03-20T04:50:23.657Z,1049.84
2019-03-20T04:51:23.640Z,1049.86
2019-03-20T04:52:23.621Z,1049.85
2019-03-20T04:53:23.600Z,1049.85
2019-03-20T04:54:23.587Z,1049.85
2019-03-20T04:55:23.569Z,1049.83
2019-03-20T04:56:23.577Z,1049.82
2019-03-20T04:57:23.529Z,1049.84
2019-03-20T04:58:23.511Z,1049.89
2019-03-20T04:59:23.497Z,1049.87
2019-03-20T05:00:23.489Z,1049.85
2019-03-20T05:01:23.458Z,1049.87
2019-03-20T05:02:23.444Z,1049.9
2019-03-20T05:03:23.469Z,1049.89
2019-03-20T05:04:23.409Z,1049.95
2019-03-20T05:05:23.386Z,1049.88
2019-03-20T05:06:23.373Z,1049.9
2019-03-20T05:07:23.351Z,1049.93
2019-03-20T05:08:23.338Z,1049.9
2019-03-20T05:09:23.316Z,1049.92
2019-03-20T05:10:23.302Z,1049.92
2019-03-20T05:11:23.292Z,1049.95
2019-03-20T05:12:23.271Z,1049.94
2019-03-20T05:13:23.244Z,1049.92
2019-03-20T05:14:23.231Z,1049.95
2019-03-20T05:15:23.210Z,1049.89
2019-03-20T05:16:23.192Z,1049.87
2019-03-20T05:17:23.174Z,1049.86
2019-03-20T05:18:23.160Z,1049.86
2019-03-20T05:19:23.139Z,1049.83
2019-03-20T05:20:23.126Z,1049.83
2019-03-20T05:21:23.104Z,1049.76
2019-03-20T05:22:23.089Z,1049.73
2019-03-20T05:23:23.067Z,1049.7
2019-03-20T05:24:23.057Z,1049.68
2019-03-20T05:25:23.032Z,1049.66
2019-03-20T05:26:23.019Z,1049.67
2019-03-20T05:27:22.997Z,1049.64
2019-03-20T05:28:22.979Z,1049.6
2019-03-20T05:29:22.974Z,1049.59
2019-03-20T05:30:22.949Z,1049.58
2019-03-20T05:31:22.927Z,1049.55
2019-03-20T05:32:22.909Z,1049.5
2019-03-20T05:33:22.891Z,1049.38
2019-03-20T05:34:22.879Z,1049.25
2019-03-20T05:35:22.857Z,1049.06
2019-03-20T05:36:22.843Z,1048.83
2019-03-20T05:37:22.822Z,1048.71
2019-03-20T05:38:22.812Z,1048.55
2019-03-20T05:39:22.786Z,1048.4
2019-03-20T05:40:22.774Z,1048.19
2019-03-20T05:41:22.759Z,1047.97
2019-03-20T05:42:22.741Z,1047.81
2019-03-20T05:43:22.724Z,1047.62
2019-03-20T05:44:22.707Z,1047.43
2019-03-20T05:45:22.688Z,1047.24
2019-03-20T05:46:22.704Z,1047.13
2019-03-20T05:47:22.659Z,1046.95
2019-03-20T05:48:22.644Z,1046.8
2019-03-20T05:49:22.627Z,1046.64
2019-03-20T05:50:22.610Z,1046.48
2019-03-20T05:51:22.596Z,1046.38
2019-03-20T05:52:22.582Z,1046.28
2019-03-20T05:53:22.563Z,1046.13
2019-03-20T05:54:22.552Z,1045.98
2019-03-20T05:55:22.534Z,1045.82
2019-03-20T05:56:22.524Z,1045.71
2019-03-20T05:57:22.505Z,1045.55
2019-03-20T05:58:22.496Z,1045.41
2019-03-20T05:59:22.482Z,1045.25
2019-03-20T06:00:22.470Z,1045.11
2019-03-20T06:01:22.452Z,1045
2019-03-20T06:02:22.442Z,1044.84
2019-03-20T06:03:22.431Z,1044.74
2019-03-20T06:04:22.421Z,1044.6
2019-03-20T06:05:22.405Z,1044.54
2019-03-20T06:06:22.389Z,1044.42
2019-03-20T06:07:22.382Z,1044.27
2019-03-20T06:08:22.363Z,1044.14
2019-03-20T06:09:22.358Z,1044
2019-03-20T06:10:22.342Z,1043.9
2019-03-20T06:11:22.336Z,1043.75
2019-03-20T06:12:22.322Z,1043.63
2019-03-20T06:13:22.313Z,1043.53
2019-03-20T06:14:22.298Z,1043.45
2019-03-20T06:15:24.485Z,1043.33
2019-03-20T06:16:22.278Z,1043.19
2019-03-20T06:17:22.273Z,1043
2019-03-20T06:18:22.258Z,1042.89
2019-03-20T06:19:22.252Z,1042.78
2019-03-20T06:20:22.243Z,1042.69
2019-03-20T06:21:22.234Z,1042.54
2019-03-20T06:22:22.605Z,1042.48
2019-03-20T06:23:22.222Z,1042.39
2019-03-20T06:24:22.202Z,1042.26
2019-03-20T06:25:22.199Z,1042.18
2019-03-20T06:26:22.185Z,1042.11
2019-03-20T06:27:22.180Z,1042
2019-03-20T06:28:22.170Z,1041.95
2019-03-20T06:29:22.164Z,1041.9
2019-03-20T06:30:22.154Z,1041.73
2019-03-20T06:31:22.143Z,1041.64
2019-03-20T06:32:22.136Z,1041.53
2019-03-20T06:33:22.136Z,1041.47
2019-03-20T06:34:22.165Z,1041.32
2019-03-20T06:35:22.114Z,1041.23
2019-03-20T06:36:22.112Z,1041.11
2019-03-20T06:37:31.904Z,1040.95
2019-03-20T06:38:22.097Z,1040.88
2019-03-20T06:39:22.087Z,1040.9
2019-03-20T06:40:22.084Z,1040.83
2019-03-20T06:41:22.073Z,1040.76
2019-03-20T06:42:22.072Z,1040.73
2019-03-20T06:43:22.061Z,1040.68
2019-03-20T06:44:22.056Z,1040.61
2019-03-20T06:45:22.059Z,1040.53
2019-03-20T06:46:22.044Z,1040.48
2019-03-20T06:47:22.037Z,1040.45
2019-03-20T06:48:22.031Z,1040.35
2019-03-20T06:49:22.030Z,1040.29
2019-03-20T06:50:22.025Z,1040.17
2019-03-20T06:51:22.016Z,1040.06
2019-03-20T06:52:22.009Z,1039.89
2019-03-20T06:53:22.004Z,1039.87
2019-03-20T06:54:22.003Z,1039.75
2019-03-20T06:55:21.995Z,1039.73
2019-03-20T06:56:21.994Z,1039.67
2019-03-20T06:57:21.984Z,1039.63
2019-03-20T06:58:21.985Z,1039.58
2019-03-20T06:59:21.975Z,1039.57
2019-03-20T07:00:21.975Z,1039.53
2019-03-20T07:01:21.967Z,1039.46
2019-03-20T07:02:21.967Z,1039.36
2019-03-20T07:03:21.962Z,1039.28
2019-03-20T07:04:21.958Z,1039.24
2019-03-20T07:05:21.950Z,1039.2
2019-03-20T07:06:21.947Z,1039.21
2019-03-20T07:07:21.947Z,1039.13
2019-03-20T07:08:21.947Z,1039.12
2019-03-20T07:09:21.936Z,1039.09
2019-03-20T07:10:21.936Z,1039.14
2019-03-20T07:11:21.929Z,1039.07
2019-03-20T07:12:21.931Z,1039.04
2019-03-20T07:13:21.924Z,1038.94
2019-03-20T07:14:21.924Z,1038.87
2019-03-20T07:15:21.919Z,1038.85
2019-03-20T07:16:21.919Z,1038.75
2019-03-20T07:17:21.913Z,1038.71
2019-03-20T07:18:21.915Z,1038.62
2019-03-20T07:19:21.912Z,1038.51
2019-03-20T07:20:21.911Z,1038.5
2019-03-20T07:21:21.904Z,1038.48
2019-03-20T07:22:21.904Z,1038.44
2019-03-20T07:23:21.905Z,1038.36
2019-03-20T07:24:21.904Z,1038.32
2019-03-20T07:25:21.902Z,1038.3
2019-03-20T07:26:21.897Z,1038.26
2019-03-20T07:27:21.910Z,1038.15
2019-03-20T07:28:21.896Z,1038.11
2019-03-20T07:29:21.899Z,1038.03
2019-03-20T07:30:21.895Z,1037.92
2019-03-20T07:31:21.899Z,1037.88
2019-03-20T07:32:21.894Z,1037.82
2019-03-20T07:33:21.899Z,1037.77
2019-03-20T07:34:21.895Z,1037.71
2019-03-20T07:35:21.899Z,1037.72
2019-03-20T07:37:21.899Z,1037.63
2019-03-20T07:38:21.897Z,1037.67
2019-03-20T07:39:21.897Z,1037.74
2019-03-20T07:40:21.901Z,1037.76
2019-03-20T07:41:21.901Z,1037.82
2019-03-20T07:42:21.902Z,1038.03
2019-03-20T07:43:21.898Z,1038.22
2019-03-20T07:44:21.903Z,1038.36
2019-03-20T07:45:21.902Z,1038.5
2019-03-20T07:46:21.904Z,1038.64
2019-03-20T07:47:21.900Z,1038.75
2019-03-20T07:48:22.698Z,1038.93
2019-03-20T07:49:21.901Z,1038.97
2019-03-20T07:50:21.907Z,1038.92
2019-03-20T07:51:21.903Z,1038.98
2019-03-20T07:52:21.905Z,1039.18
2019-03-20T07:53:21.904Z,1039.27
2019-03-20T07:54:21.908Z,1039.21
2019-03-20T07:55:21.909Z,1039.36
2019-03-20T07:56:21.905Z,1039.5
2019-03-20T07:57:21.905Z,1039.58
2019-03-20T07:58:21.905Z,1039.59
2019-03-20T07:59:21.910Z,1039.56
2019-03-20T08:00:21.905Z,1039.56
2019-03-20T08:01:21.905Z,1039.53
2019-03-20T08:02:21.909Z,1039.54
2019-03-20T08:03:21.906Z,1039.51
2019-03-20T08:04:21.909Z,1039.54
2019-03-20T08:05:28.994Z,1039.63
2019-03-20T08:06:21.909Z,1039.68
2019-03-20T08:07:21.904Z,1039.64
2019-03-20T08:08:21.904Z,1039.66
2019-03-20T08:09:21.920Z,1039.78
2019-03-20T08:10:21.906Z,1040.06
2019-03-20T08:11:21.905Z,1040.63
2019-03-20T08:12:21.899Z,1041.1
2019-03-20T08:13:21.898Z,1041.54
2019-03-20T08:14:21.897Z,1041.9
2019-03-20T08:15:21.899Z,1042.34
2019-03-20T08:16:21.892Z,1042.62
2019-03-20T08:17:21.895Z,1042.94
2019-03-20T08:18:21.888Z,1043.21
2019-03-20T08:19:21.889Z,1043.53
2019-03-20T08:20:21.881Z,1043.69
2019-03-20T08:21:21.882Z,1043.88
2019-03-20T08:22:21.874Z,1044.06
2019-03-20T08:23:21.874Z,1044.22
2019-03-20T08:24:21.870Z,1044.45
2019-03-20T08:25:21.866Z,1044.56
2019-03-20T08:26:21.857Z,1044.74
2019-03-20T08:27:21.856Z,1044.85
2019-03-20T08:28:21.846Z,1044.96
2019-03-20T08:29:21.845Z,1045.05
2019-03-20T08:30:21.835Z,1045.09
2019-03-20T08:31:21.836Z,1045.23
2019-03-20T08:32:21.822Z,1045.31
2019-03-20T08:33:21.822Z,1045.41
2019-03-20T08:34:21.809Z,1045.49
2019-03-20T08:35:21.808Z,1045.54
2019-03-20T08:36:21.798Z,1045.62
2019-03-20T08:37:21.795Z,1045.65
2019-03-20T08:38:21.785Z,1045.68
2019-03-20T08:39:21.780Z,1045.73
2019-03-20T08:40:21.768Z,1045.79
2019-03-20T08:41:21.765Z,1045.82
2019-03-20T08:42:21.758Z,1045.91
2019-03-20T08:43:21.750Z,1045.91
2019-03-20T08:44:21.739Z,1045.96
2019-03-20T08:45:21.730Z,1045.97
2019-03-20T08:46:21.722Z,1046.01
2019-03-20T08:47:21.719Z,1045.99
2019-03-20T08:48:21.706Z,1046.03
2019-03-20T08:49:21.701Z,1046.09
2019-03-20T08:50:21.690Z,1046.11
2019-03-20T08:51:21.686Z,1046.13
2019-03-20T08:52:21.673Z,1046.17
2019-03-20T08:53:21.668Z,1046.16
2019-03-20T08:54:21.661Z,1046.18
2019-03-20T08:55:21.647Z,1046.23
2019-03-20T08:56:21.638Z,1046.28
2019-03-20T08:57:21.634Z,1046.31
2019-03-20T08:58:21.626Z,1046.34
2019-03-20T08:59:21.617Z,1046.37
2019-03-20T09:00:21.603Z,1046.32
2019-03-20T09:01:28.326Z,1046.31
2019-03-20T09:02:21.586Z,1046.31
2019-03-20T09:03:21.581Z,1046.31
2019-03-20T09:04:21.568Z,1046.26
2019-03-20T09:05:21.563Z,1046.23
2019-03-20T09:06:21.550Z,1046.24
2019-03-20T09:07:21.544Z,1046.23
2019-03-20T09:08:29.144Z,1046.25
2019-03-20T09:09:21.523Z,1046.23
2019-03-20T09:10:21.518Z,1046.26
2019-03-20T09:11:21.508Z,1046.18
2019-03-20T09:12:21.499Z,1046.2
2019-03-20T09:13:21.486Z,1046.21
2019-03-20T09:14:21.481Z,1046.22
2019-03-20T09:15:21.466Z,1046.21
2019-03-20T09:16:21.465Z,1046.2
2019-03-20T09:17:21.450Z,1046.2
2019-03-20T09:18:21.441Z,1046.22
2019-03-20T09:19:21.436Z,1046.21
2019-03-20T09:20:21.424Z,1046.16
2019-03-20T09:21:21.419Z,1046.2
2019-03-20T09:22:21.405Z,1046.17
2019-03-20T09:23:21.400Z,1046.21
2019-03-20T09:24:21.389Z,1046.21
2019-03-20T09:25:21.378Z,1046.21
2019-03-20T09:26:21.369Z,1046.18
2019-03-20T09:27:21.366Z,1046.21
2019-03-20T09:28:21.356Z,1046.19
2019-03-20T09:29:21.347Z,1046.21
2019-03-20T09:30:21.333Z,1046.16
2019-03-20T09:31:21.324Z,1046.24
2019-03-20T09:32:21.322Z,1046.17
2019-03-20T09:33:21.307Z,1046.18
2019-03-20T09:34:21.301Z,1046.21
2019-03-20T09:35:21.289Z,1046.2
2019-03-20T09:36:21.284Z,1046.17
2019-03-20T09:37:21.271Z,1046.14
2019-03-20T09:38:21.268Z,1046.1
2019-03-20T09:39:21.253Z,1046
2019-03-20T09:40:23.430Z,1045.96
2019-03-20T09:41:21.240Z,1045.97
2019-03-20T09:42:21.232Z,1045.94
2019-03-20T09:43:21.220Z,1045.93
2019-03-20T09:44:21.212Z,1045.9
2019-03-20T09:45:21.199Z,1045.92
2019-03-20T09:46:21.191Z,1045.93
2019-03-20T09:47:21.181Z,1045.9
2019-03-20T09:48:21.177Z,1045.89
2019-03-20T09:49:21.165Z,1045.94
2019-03-20T09:50:21.160Z,1045.88
2019-03-20T09:51:21.173Z,1045.86
2019-03-20T09:52:21.142Z,1045.88
2019-03-20T09:53:21.130Z,1045.86
2019-03-20T09:54:21.125Z,1045.85
2019-03-20T09:55:21.111Z,1045.8
2019-03-20T09:56:21.108Z,1045.79
2019-03-20T09:57:21.098Z,1045.83
2019-03-20T09:58:21.089Z,1045.76
2019-03-20T09:59:21.078Z,1045.77
2019-03-20T10:00:21.073Z,1045.78
2019-03-20T10:01:21.071Z,1045.8
2019-03-20T10:02:21.055Z,1045.7
2019-03-20T10:03:21.047Z,1045.7
2019-03-20T10:04:21.038Z,1045.66
2019-03-20T10:05:21.032Z,1045.68
2019-03-20T10:06:21.015Z,1045.73
2019-03-20T10:07:21.013Z,1045.71
2019-03-20T10:08:21.001Z,1045.77
2019-03-20T10:09:20.995Z,1045.75
2019-03-20T10:10:20.988Z,1045.68
2019-03-20T10:11:20.975Z,1045.64
2019-03-20T10:12:20.974Z,1045.57
2019-03-20T10:13:20.962Z,1045.54
2019-03-20T10:14:20.953Z,1045.51
2019-03-20T10:15:20.941Z,1045.45
2019-03-20T10:16:20.933Z,1045.43
2019-03-20T10:17:20.928Z,1045.4
2019-03-20T10:18:20.920Z,1045.37
2019-03-20T10:19:20.912Z,1045.37
2019-03-20T10:20:20.899Z,1045.36
2019-03-20T10:21:20.900Z,1045.36
2019-03-20T10:22:20.887Z,1045.35
2019-03-20T10:23:20.875Z,1045.33
2019-03-20T10:24:20.870Z,1045.27
2019-03-20T10:25:20.859Z,1045.25
2019-03-20T10:26:20.854Z,1045.21
2019-03-20T10:27:20.842Z,1045.25
2019-03-20T10:28:20.842Z,1045.22
2019-03-20T10:29:20.829Z,1045.18
2019-03-20T10:30:20.821Z,1045.17
2019-03-20T10:31:20.810Z,1045.14
2019-03-20T10:32:20.801Z,1045.17
2019-03-20T10:33:20.798Z,1045.19
2019-03-20T10:34:20.789Z,1045.21
2019-03-20T10:35:20.774Z,1045.21
2019-03-20T10:36:20.772Z,1045.17
2019-03-20T10:37:20.760Z,1045.17
2019-03-20T10:38:20.756Z,1045.18
2019-03-20T10:39:20.744Z,1045.14
2019-03-20T10:40:20.742Z,1045.15
2019-03-20T10:41:20.728Z,1045.08
2019-03-20T10:42:20.723Z,1045.11
2019-03-20T10:43:20.712Z,1045.11
2019-03-20T10:44:20.709Z,1045.18
2019-03-20T10:45:20.701Z,1045.18
2019-03-20T10:46:20.692Z,1045.19
2019-03-20T10:47:20.681Z,1045.1
2019-03-20T10:48:20.671Z,1045.22
2019-03-20T10:49:20.668Z,1045.16
2019-03-20T10:50:21.491Z,1045.18
2019-03-20T10:51:20.661Z,1045.09
2019-03-20T10:52:20.641Z,1045.17
2019-03-20T10:53:20.634Z,1045.14
2019-03-20T10:54:20.625Z,1045.24
2019-03-20T10:55:20.622Z,1045.17
2019-03-20T10:56:20.612Z,1045.16
2019-03-20T10:57:20.602Z,1045.17
2019-03-20T10:58:20.590Z,1045.13
2019-03-20T10:59:20.586Z,1045.14
2019-03-20T11:00:20.574Z,1045.11
2019-03-20T11:01:20.571Z,1045.15
2019-03-20T11:02:20.563Z,1045.21
2019-03-20T11:03:20.554Z,1045.26
2019-03-20T11:04:20.543Z,1045.23
2019-03-20T11:05:20.539Z,1045.2
2019-03-20T11:06:20.532Z,1045.13
2019-03-20T11:07:20.522Z,1045.13
2019-03-20T11:08:20.510Z,1045.12
2019-03-20T11:09:20.516Z,1045.19
2019-03-20T11:10:20.494Z,1045.21
2019-03-20T11:11:26.812Z,1045.16
2019-03-20T11:12:20.477Z,1045.16
2019-03-20T11:13:20.475Z,1045.11
2019-03-20T11:14:20.465Z,1045.09
2019-03-20T11:15:20.457Z,1045.12
2019-03-20T11:16:20.463Z,1045.03
2019-03-20T11:17:20.441Z,1044.98
2019-03-20T11:18:20.438Z,1044.97
2019-03-20T11:19:20.425Z,1045
2019-03-20T11:20:20.418Z,1044.89
2019-03-20T11:21:20.405Z,1044.9
2019-03-20T11:22:20.397Z,1044.91
2019-03-20T11:23:20.389Z,1044.88
2019-03-20T11:24:20.385Z,1044.83
2019-03-20T11:25:20.373Z,1044.86
2019-03-20T11:26:20.365Z,1044.82
2019-03-20T11:27:20.361Z,1044.75
2019-03-20T11:28:20.349Z,1044.7
2019-03-20T11:29:21.685Z,1044.73
2019-03-20T11:30:20.333Z,1044.63
2019-03-20T11:31:20.329Z,1044.59
2019-03-20T11:32:20.317Z,1044.69
2019-03-20T11:33:20.310Z,1044.55
2019-03-20T11:34:20.300Z,1044.56
2019-03-20T11:35:20.298Z,1044.55
2019-03-20T11:36:20.291Z,1044.56
2019-03-20T11:37:20.281Z,1044.46
2019-03-20T11:38:20.271Z,1044.41
2019-03-20T11:39:29.128Z,1044.4
2019-03-20T11:40:20.260Z,1044.4
2019-03-20T11:41:20.247Z,1044.39
2019-03-20T11:42:20.245Z,1044.31
2019-03-20T11:43:20.232Z,1044.27
2019-03-20T11:44:20.228Z,1044.19
2019-03-20T11:45:20.217Z,1044.11
2019-03-20T11:46:20.216Z,1044.01
2019-03-20T11:47:20.203Z,1043.9
2019-03-20T11:48:20.199Z,1043.81
2019-03-20T11:49:20.192Z,1043.77
2019-03-20T11:50:20.185Z,1043.73
2019-03-20T11:51:20.177Z,1043.66
2019-03-20T11:52:20.170Z,1043.59
2019-03-20T11:53:20.160Z,1043.55
2019-03-20T11:54:20.153Z,1043.54
2019-03-20T11:55:20.146Z,1043.53
2019-03-20T11:56:20.142Z,1043.45
2019-03-20T11:57:21.625Z,1043.4
2019-03-20T11:58:20.129Z,1043.4
2019-03-20T11:59:20.119Z,1043.31
2019-03-20T12:00:20.116Z,1043.2
2019-03-20T12:01:20.105Z,1043.2
2019-03-20T12:02:27.925Z,1043.09
2019-03-20T12:03:20.093Z,1043.03
2019-03-20T12:04:20.090Z,1042.95
2019-03-20T12:05:20.080Z,1042.86
2019-03-20T12:06:20.074Z,1042.83
2019-03-20T12:07:20.071Z,1042.74
2019-03-20T12:08:20.065Z,1042.65
2019-03-20T12:09:20.055Z,1042.55